sensor_id;sensor_type;location;lat;lon;timestamp;pressure;altitude;pressure_sealevel;temperature;humidity
44920;BME280;30655;53.094;6.072;2022-07-18T00:09:40;102383.97;;;17.16;71.94
44920;BME280;30655;53.094;6.072;2022-07-18T00:19:55;102371.94;;;16.97;72.53
44920;BME280;30655;53.094;6.072;2022-07-18T00:22:57;102500.94;;;17.70;72.82
44920;BME280;30655;53.094;6.072;2022-07-18T00:25:42;102503.13;;;17.73;73.09
44920;BME280;30655;53.094;6.072;2022-07-18T00:28:46;102378.75;;;16.94;72.95
44920;BME280;30655;53.094;6.072;2022-07-18T00:31:25;102430.97;;;17.23;73.04
44920;BME280;30655;53.094;6.072;2022-07-18T00:36:56;102574.50;;;17.96;73.26
44920;BME280;30655;53.094;6.072;2022-07-18T00:46:34;102583.81;;;17.80;73.55
44920;BME280;30655;53.094;6.072;2022-07-18T00:49:07;102425.50;;;16.93;73.59
44920;BME280;30655;53.094;6.072;2022-07-18T00:55:06;102375.44;;;16.57;73.30
44920;BME280;30655;53.094;6.072;2022-07-18T00:57:57;102556.72;;;17.74;73.58
44920;BME280;30655;53.094;6.072;2022-07-18T01:00:39;102356.06;;;16.48;73.19
44920;BME280;30655;53.094;6.072;2022-07-18T01:03:29;102535.41;;;17.71;73.31
44920;BME280;30655;53.094;6.072;2022-07-18T01:09:47;102467.59;;;17.22;73.53
44920;BME280;30655;53.094;6.072;2022-07-18T01:12:44;102503.13;;;17.42;73.80
44920;BME280;30655;53.094;6.072;2022-07-18T01:15:43;102424.38;;;16.89;73.47
44920;BME280;30655;53.094;6.072;2022-07-18T01:18:47;102471.41;;;17.21;73.60
44920;BME280;30655;53.094;6.072;2022-07-18T01:21:58;102388.31;;;16.61;73.72
44920;BME280;30655;53.094;6.072;2022-07-18T01:25:03;102397.56;;;16.60;74.05
44920;BME280;30655;53.094;6.072;2022-07-18T01:27:51;102351.63;;;16.22;74.18
44920;BME280;30655;53.094;6.072;2022-07-18T01:30:45;102511.81;;;17.24;74.34
44920;BME280;30655;53.094;6.072;2022-07-18T01:33:34;102485.63;;;17.13;74.19
44920;BME280;30655;53.094;6.072;2022-07-18T01:36:07;102351.91;;;16.25;74.15
44920;BME280;30655;53.094;6.072;2022-07-18T01:38:45;102479.31;;;17.12;74.36
44920;BME280;30655;53.094;6.072;2022-07-18T01:42:01;102359.25;;;16.25;74.35
44920;BME280;30655;53.094;6.072;2022-07-18T01:44:43;102452.78;;;16.83;74.17
44920;BME280;30655;53.094;6.072;2022-07-18T01:50:09;102493.50;;;17.04;73.97
44920;BME280;30655;53.094;6.072;2022-07-18T01:52:55;102498.72;;;17.11;74.17
44920;BME280;30655;53.094;6.072;2022-07-18T01:55:40;102475.19;;;17.05;73.72
44920;BME280;30655;53.094;6.072;2022-07-18T01:58:31;102342.88;;;16.20;73.74
44920;BME280;30655;53.094;6.072;2022-07-18T02:04:53;102301.03;;;15.89;73.88
44920;BME280;30655;53.094;6.072;2022-07-18T02:09:49;102519.50;;;17.17;73.93
44920;BME280;30655;53.094;6.072;2022-07-18T05:50:28;102239.66;;;17.33;65.27
44920;BME280;30655;53.094;6.072;2022-07-18T05:53:12;102238.22;;;17.46;65.36
44920;BME280;30655;53.094;6.072;2022-07-18T05:55:56;102379.72;;;18.43;64.97
44920;BME280;30655;53.094;6.072;2022-07-18T05:58:29;102382.41;;;18.48;64.79
44920;BME280;30655;53.094;6.072;2022-07-18T06:01:06;102249.41;;;17.59;64.03
44920;BME280;30655;53.094;6.072;2022-07-18T06:03:48;102395.53;;;18.62;63.81
44920;BME280;30655;53.094;6.072;2022-07-18T06:06:26;102254.28;;;17.73;63.59
44920;BME280;30655;53.094;6.072;2022-07-18T06:09:27;102394.59;;;18.76;63.73
44920;BME280;30655;53.094;6.072;2022-07-18T06:18:42;102309.63;;;18.47;62.68
44920;BME280;30655;53.094;6.072;2022-07-18T06:34:57;102401.47;;;19.42;62.02
44920;BME280;30655;53.094;6.072;2022-07-18T06:37:29;102370.34;;;19.27;61.89
44920;BME280;30655;53.094;6.072;2022-07-18T06:39:59;102404.06;;;19.57;61.72
44920;BME280;30655;53.094;6.072;2022-07-18T06:42:31;102370.13;;;19.48;61.67
44920;BME280;30655;53.094;6.072;2022-07-18T06:45:08;102341.47;;;19.35;61.45
44920;BME280;30655;53.094;6.072;2022-07-18T06:47:51;102235.19;;;18.74;60.78
44920;BME280;30655;53.094;6.072;2022-07-18T06:50:22;102287.06;;;19.18;60.27
44920;BME280;30655;53.094;6.072;2022-07-18T06:52:52;102375.13;;;19.69;60.04
44920;BME280;30655;53.094;6.072;2022-07-18T06:55:21;102358.31;;;19.76;60.24
44920;BME280;30655;53.094;6.072;2022-07-18T06:57:48;102221.25;;;19.00;60.22
44920;BME280;30655;53.094;6.072;2022-07-18T07:00:15;102398.97;;;20.16;59.54
44920;BME280;30655;53.094;6.072;2022-07-18T07:02:44;102305.44;;;19.70;59.44
44920;BME280;30655;53.094;6.072;2022-07-18T07:05:12;102273.69;;;19.64;59.32
44920;BME280;30655;53.094;6.072;2022-07-18T07:07:42;102271.53;;;19.61;58.85
44920;BME280;30655;53.094;6.072;2022-07-18T07:10:20;102238.91;;;19.60;58.79
44920;BME280;30655;53.094;6.072;2022-07-18T07:12:50;102235.75;;;19.71;58.64
44920;BME280;30655;53.094;6.072;2022-07-18T07:15:20;102302.75;;;20.27;58.70
44920;BME280;30655;53.094;6.072;2022-07-18T07:17:48;102340.06;;;20.65;58.17
44920;BME280;30655;53.094;6.072;2022-07-18T07:20:18;102339.22;;;20.83;58.50
44920;BME280;30655;53.094;6.072;2022-07-18T07:23:06;102255.31;;;20.40;57.47
44920;BME280;30655;53.094;6.072;2022-07-18T07:26:20;102296.97;;;20.79;57.04
44920;BME280;30655;53.094;6.072;2022-07-18T07:28:54;102388.78;;;21.43;56.70
44920;BME280;30655;53.094;6.072;2022-07-18T07:31:32;102378.69;;;21.52;56.50
44920;BME280;30655;53.094;6.072;2022-07-18T07:34:24;102309.56;;;21.13;55.66
44920;BME280;30655;53.094;6.072;2022-07-18T07:37:10;102297.34;;;21.05;55.07
44920;BME280;30655;53.094;6.072;2022-07-18T07:39:41;102283.38;;;21.01;55.41
44920;BME280;30655;53.094;6.072;2022-07-18T07:42:09;102384.44;;;21.56;53.75
44920;BME280;30655;53.094;6.072;2022-07-18T07:44:48;102307.78;;;21.22;54.94
44920;BME280;30655;53.094;6.072;2022-07-18T07:47:29;102352.44;;;21.60;55.19
44920;BME280;30655;53.094;6.072;2022-07-18T07:49:59;102389.09;;;21.82;55.13
44920;BME280;30655;53.094;6.072;2022-07-18T07:52:52;102370.78;;;21.92;54.96
44920;BME280;30655;53.094;6.072;2022-07-18T07:55:24;102315.72;;;21.64;54.28
44920;BME280;30655;53.094;6.072;2022-07-18T07:58:02;102374.84;;;22.08;53.68
44920;BME280;30655;53.094;6.072;2022-07-18T08:00:32;102363.31;;;22.19;53.78
44920;BME280;30655;53.094;6.072;2022-07-18T08:03:01;102340.16;;;22.07;53.87
44920;BME280;30655;53.094;6.072;2022-07-18T08:09:40;102356.16;;;22.54;53.27
44920;BME280;30655;53.094;6.072;2022-07-18T08:38:37;102325.91;;;23.38;50.87
44920;BME280;30655;53.094;6.072;2022-07-18T08:43:55;102210.03;;;22.99;49.59
44920;BME280;30655;53.094;6.072;2022-07-18T08:51:02;102227.16;;;23.27;49.27
44920;BME280;30655;53.094;6.072;2022-07-18T09:11:24;102192.22;;;23.79;46.83
44920;BME280;30655;53.094;6.072;2022-07-18T09:18:09;102315.69;;;24.99;45.19
44920;BME280;30655;53.094;6.072;2022-07-18T09:28:11;102250.94;;;25.67;44.19
44920;BME280;30655;53.094;6.072;2022-07-18T09:32:05;102162.06;;;25.60;42.87
44920;BME280;30655;53.094;6.072;2022-07-18T09:35:21;102317.63;;;26.86;41.55
44920;BME280;30655;53.094;6.072;2022-07-18T09:38:22;102178.22;;;26.11;42.04
44920;BME280;30655;53.094;6.072;2022-07-18T10:08:37;102192.75;;;27.35;38.03
44920;BME280;30655;53.094;6.072;2022-07-18T10:11:45;102290.13;;;28.03;37.89
44920;BME280;30655;53.094;6.072;2022-07-18T10:14:28;102317.78;;;28.51;37.59
44920;BME280;30655;53.094;6.072;2022-07-18T10:16:56;102291.13;;;28.50;36.87
44920;BME280;30655;53.094;6.072;2022-07-18T10:19:22;102252.69;;;28.40;35.92
44920;BME280;30655;53.094;6.072;2022-07-18T10:21:49;102322.94;;;28.93;36.27
44920;BME280;30655;53.094;6.072;2022-07-18T10:24:18;102259.31;;;28.63;36.07
44920;BME280;30655;53.094;6.072;2022-07-18T10:27:14;102279.19;;;28.78;35.52
44920;BME280;30655;53.094;6.072;2022-07-18T10:40:55;102314.81;;;29.47;34.07
44920;BME280;30655;53.094;6.072;2022-07-18T11:02:40;102176.31;;;28.81;31.12
44920;BME280;30655;53.094;6.072;2022-07-18T16:40:14;102041.81;;;33.41;23.11
44920;BME280;30655;53.094;6.072;2022-07-18T16:43:29;101950.72;;;32.81;23.88
44920;BME280;30655;53.094;6.072;2022-07-18T16:48:10;101932.69;;;32.75;23.88
44920;BME280;30655;53.094;6.072;2022-07-18T16:50:59;101971.19;;;33.00;23.80
44920;BME280;30655;53.094;6.072;2022-07-18T16:54:16;102022.59;;;33.32;24.10
44920;BME280;30655;53.094;6.072;2022-07-18T17:04:34;101946.53;;;32.54;23.95
44920;BME280;30655;53.094;6.072;2022-07-18T17:07:41;101941.22;;;32.35;24.52
44920;BME280;30655;53.094;6.072;2022-07-18T18:21:46;101977.53;;;30.01;30.03
44920;BME280;30655;53.094;6.072;2022-07-18T20:23:55;101905.50;;;24.27;47.09
44920;BME280;30655;53.094;6.072;2022-07-18T20:33:53;102061.94;;;24.87;48.11
44920;BME280;30655;53.094;6.072;2022-07-18T21:00:58;102051.50;;;24.25;50.92
44920;BME280;30655;53.094;6.072;2022-07-18T21:13:54;102035.34;;;23.81;53.35
44920;BME280;30655;53.094;6.072;2022-07-18T21:40:39;101927.63;;;22.83;55.16
44920;BME280;30655;53.094;6.072;2022-07-18T21:43:59;101928.94;;;22.77;55.92
44920;BME280;30655;53.094;6.072;2022-07-18T21:51:58;102018.47;;;23.22;55.66
